createdAt,value
2024-01-26T00:00:30.850Z,99.90
2024-01-26T00:03:01.009Z,99.90
2024-01-26T00:05:28.280Z,99.90
2024-01-26T00:07:55.947Z,99.90
2024-01-26T00:10:23.761Z,99.90
2024-01-26T00:12:51.234Z,99.90
2024-01-26T00:15:19.232Z,99.90
2024-01-26T00:17:46.476Z,99.90
2024-01-26T00:20:14.582Z,99.90
2024-01-26T00:22:41.814Z,99.90
2024-01-26T00:25:09.573Z,99.90
2024-01-26T00:27:37.317Z,99.90
2024-01-26T00:30:06.731Z,99.90
2024-01-26T00:32:34.713Z,99.90
2024-01-26T00:35:02.093Z,99.90
2024-01-26T00:37:29.235Z,99.90
2024-01-26T00:39:56.446Z,99.90
2024-01-26T00:42:23.812Z,99.90
2024-01-26T00:44:51.170Z,99.90
2024-01-26T00:47:19.404Z,99.90
2024-01-26T00:49:52.313Z,99.90
2024-01-26T00:52:20.818Z,99.90
2024-01-26T00:54:48.011Z,99.90
2024-01-26T00:57:15.380Z,99.90
2024-01-26T00:59:42.821Z,99.90
2024-01-26T01:02:10.163Z,99.90
2024-01-26T01:04:37.481Z,99.90
2024-01-26T01:07:05.075Z,99.90
2024-01-26T01:09:33.022Z,99.90
2024-01-26T01:12:00.769Z,99.90
2024-01-26T01:14:30.079Z,99.90
2024-01-26T01:16:58.218Z,99.90
2024-01-26T01:19:25.742Z,99.90
2024-01-26T01:21:52.949Z,99.90
2024-01-26T01:24:20.529Z,99.90
2024-01-26T01:26:47.665Z,99.90
2024-01-26T01:29:15.190Z,99.90
2024-01-26T01:31:42.457Z,99.90
2024-01-26T01:34:09.816Z,99.90
2024-01-26T01:36:37.237Z,99.90
2024-01-26T01:39:04.593Z,99.90
2024-01-26T01:41:31.882Z,99.90
2024-01-26T01:43:59.323Z,99.90
2024-01-26T01:46:26.564Z,99.90
2024-01-26T01:48:53.991Z,99.90
2024-01-26T01:51:23.153Z,99.90
2024-01-26T01:53:51.116Z,99.90
2024-01-26T01:56:21.988Z,99.90
2024-01-26T01:58:50.958Z,99.90
2024-01-26T02:01:19.627Z,99.90
2024-01-26T02:03:47.778Z,99.90
2024-01-26T02:06:15.199Z,99.90
2024-01-26T02:08:42.786Z,99.90
2024-01-26T02:11:09.894Z,99.90
2024-01-26T02:13:37.121Z,99.90
2024-01-26T02:16:04.711Z,99.90
2024-01-26T02:18:32.124Z,99.90
2024-01-26T02:20:59.622Z,99.90
2024-01-26T02:23:27.107Z,99.90
2024-01-26T02:25:57.035Z,99.90
2024-01-26T02:28:24.648Z,99.90
2024-01-26T02:30:51.969Z,99.90
2024-01-26T02:33:19.255Z,99.90
2024-01-26T02:35:46.742Z,99.90
2024-01-26T02:38:14.061Z,99.90
2024-01-26T02:40:41.518Z,99.90
2024-01-26T02:43:08.746Z,99.90
2024-01-26T02:45:38.576Z,99.90
2024-01-26T02:48:06.395Z,99.90
2024-01-26T02:50:34.974Z,99.90
2024-01-26T02:53:02.272Z,99.90
2024-01-26T02:55:29.455Z,99.90
2024-01-26T02:57:57.532Z,99.90
2024-01-26T03:00:24.775Z,99.90
2024-01-26T03:02:52.338Z,99.90
2024-01-26T03:05:19.563Z,99.90
2024-01-26T03:07:47.094Z,99.90
2024-01-26T03:10:14.243Z,99.90
2024-01-26T03:12:41.676Z,99.90
2024-01-26T03:15:09.154Z,99.90
2024-01-26T03:17:37.251Z,99.90
2024-01-26T03:20:04.971Z,99.90
2024-01-26T03:22:32.656Z,99.90
2024-01-26T03:24:59.897Z,99.90
2024-01-26T03:27:28.913Z,99.90
2024-01-26T03:29:56.747Z,99.90
2024-01-26T03:32:23.994Z,99.90
2024-01-26T03:34:52.119Z,99.90
2024-01-26T03:37:19.288Z,99.90
2024-01-26T03:39:46.617Z,99.90
2024-01-26T03:42:14.139Z,99.90
2024-01-26T03:44:42.558Z,99.90
2024-01-26T03:47:11.681Z,99.90
2024-01-26T03:49:46.046Z,99.90
2024-01-26T03:52:13.551Z,99.90
2024-01-26T03:54:41.467Z,99.90
2024-01-26T03:57:09.348Z,99.90
2024-01-26T03:59:37.050Z,99.90
2024-01-26T04:02:04.429Z,99.90
2024-01-26T04:04:31.818Z,99.90
2024-01-26T04:06:59.145Z,99.90
2024-01-26T04:09:26.878Z,99.90
2024-01-26T04:11:54.035Z,99.90
2024-01-26T04:14:22.141Z,99.90
2024-01-26T04:16:49.736Z,99.90
2024-01-26T04:19:17.261Z,99.90
2024-01-26T04:21:44.626Z,99.90
2024-01-26T04:24:14.832Z,99.90
2024-01-26T04:26:45.278Z,99.90
2024-01-26T04:29:13.047Z,99.90
2024-01-26T04:31:43.810Z,99.90
2024-01-26T04:34:11.981Z,99.90
2024-01-26T04:36:39.224Z,99.90
2024-01-26T04:39:06.604Z,99.90
2024-01-26T04:41:33.895Z,99.90
2024-01-26T04:44:01.213Z,99.90
2024-01-26T04:46:28.345Z,99.90
2024-01-26T04:48:55.813Z,99.90
2024-01-26T04:51:23.168Z,99.90
2024-01-26T04:53:50.208Z,99.90
2024-01-26T04:56:17.696Z,99.90
2024-01-26T04:58:44.863Z,99.90
2024-01-26T05:01:12.355Z,99.90
2024-01-26T05:03:39.861Z,99.90
2024-01-26T05:06:07.811Z,99.90
2024-01-26T05:08:35.074Z,99.90
2024-01-26T05:11:02.485Z,99.90
2024-01-26T05:13:29.659Z,99.90
2024-01-26T05:16:00.041Z,99.90
2024-01-26T05:18:28.559Z,99.90
2024-01-26T05:20:55.940Z,99.90
2024-01-26T05:23:23.114Z,99.90
2024-01-26T05:25:50.439Z,99.90
2024-01-26T05:28:17.876Z,99.90
2024-01-26T05:30:45.230Z,99.90
2024-01-26T05:33:12.949Z,99.90
2024-01-26T05:35:40.259Z,99.90
2024-01-26T05:38:10.438Z,99.90
2024-01-26T05:40:37.834Z,99.90
2024-01-26T05:43:05.061Z,99.90
2024-01-26T05:45:32.476Z,99.90
2024-01-26T05:47:59.803Z,99.90
2024-01-26T05:50:26.993Z,99.90
2024-01-26T05:52:54.301Z,99.90
2024-01-26T05:55:21.747Z,99.90
2024-01-26T05:57:49.103Z,99.90
2024-01-26T06:00:18.594Z,99.90
2024-01-26T06:02:46.815Z,99.90
2024-01-26T06:05:14.542Z,99.90
2024-01-26T06:07:42.038Z,99.90
2024-01-26T06:10:09.879Z,99.90
2024-01-26T06:12:41.832Z,99.90
2024-01-26T06:15:10.603Z,99.90
2024-01-26T06:17:38.245Z,99.90
2024-01-26T06:20:06.641Z,99.90
2024-01-26T06:22:34.206Z,99.90
2024-01-26T06:25:01.721Z,99.90
2024-01-26T06:27:29.081Z,99.90
2024-01-26T06:29:56.464Z,99.90
2024-01-26T06:32:23.987Z,99.90
2024-01-26T06:34:51.427Z,99.90
2024-01-26T06:37:20.164Z,99.90
2024-01-26T06:39:47.431Z,99.90
2024-01-26T06:42:14.675Z,99.90
2024-01-26T06:44:42.120Z,99.90
2024-01-26T06:47:09.295Z,99.90
2024-01-26T06:49:38.953Z,99.90
2024-01-26T06:52:06.274Z,99.90
2024-01-26T06:54:33.589Z,99.90
2024-01-26T06:57:00.782Z,99.90
2024-01-26T06:59:28.197Z,99.90
2024-01-26T07:01:55.222Z,99.90
2024-01-26T07:04:22.559Z,99.90
2024-01-26T07:06:49.980Z,99.90
2024-01-26T07:09:17.524Z,99.90
2024-01-26T07:11:44.883Z,99.90
2024-01-26T07:14:13.694Z,99.90
2024-01-26T07:16:42.623Z,99.90
2024-01-26T07:19:09.966Z,99.90
2024-01-26T07:21:37.263Z,99.90
2024-01-26T07:24:04.760Z,99.90
2024-01-26T07:26:31.871Z,99.90
2024-01-26T07:28:59.320Z,99.90
2024-01-26T07:31:26.635Z,99.90
2024-01-26T07:33:54.784Z,99.90
2024-01-26T07:36:22.280Z,99.90
2024-01-26T07:38:50.036Z,99.90
2024-01-26T07:41:17.408Z,99.90
2024-01-26T07:43:44.982Z,99.90
2024-01-26T07:46:12.551Z,99.90
2024-01-26T07:48:40.049Z,99.90
2024-01-26T07:51:07.330Z,99.90
2024-01-26T07:53:34.858Z,99.90
2024-01-26T07:56:04.704Z,99.90
2024-01-26T07:58:33.307Z,99.90
2024-01-26T08:01:00.624Z,99.90
2024-01-26T08:03:28.102Z,99.90
2024-01-26T08:05:55.567Z,99.90
2024-01-26T08:08:22.865Z,99.90
2024-01-26T08:10:50.042Z,99.90
2024-01-26T08:13:18.046Z,99.90
2024-01-26T08:15:45.528Z,98.30
2024-01-26T08:18:13.024Z,97.30
2024-01-26T08:20:40.200Z,96.40
2024-01-26T08:23:07.773Z,96.50
2024-01-26T08:25:35.179Z,95.20
2024-01-26T08:28:02.982Z,94.50
2024-01-26T08:30:30.355Z,93.40
2024-01-26T08:32:57.754Z,92.90
2024-01-26T08:35:25.202Z,92.70
2024-01-26T08:37:52.977Z,93.40
2024-01-26T08:40:21.620Z,93.20
2024-01-26T08:42:49.172Z,93.00
2024-01-26T08:45:16.488Z,92.80
2024-01-26T08:47:44.070Z,91.30
2024-01-26T08:50:12.400Z,89.90
2024-01-26T08:52:42.915Z,86.90
2024-01-26T08:55:10.554Z,85.10
2024-01-26T08:57:37.836Z,80.20
2024-01-26T09:00:10.554Z,78.60
2024-01-26T09:02:38.295Z,79.40
2024-01-26T09:05:07.674Z,77.30
2024-01-26T09:07:35.121Z,75.80
2024-01-26T09:10:02.858Z,72.70
2024-01-26T09:12:30.239Z,74.60
2024-01-26T09:14:57.495Z,74.40
2024-01-26T09:17:25.552Z,73.70
2024-01-26T09:19:53.015Z,73.80
2024-01-26T09:22:20.887Z,73.40
2024-01-26T09:24:48.421Z,72.70
2024-01-26T09:27:15.880Z,73.60
2024-01-26T09:29:43.761Z,69.90
2024-01-26T09:32:11.209Z,68.60
2024-01-26T09:34:38.812Z,70.60
2024-01-26T09:37:06.208Z,72.30
2024-01-26T09:39:33.402Z,76.40
2024-01-26T09:42:01.088Z,78.60
2024-01-26T09:44:28.452Z,80.40
2024-01-26T09:46:56.545Z,83.70
2024-01-26T09:49:25.051Z,87.30
2024-01-26T09:51:52.670Z,91.40
2024-01-26T09:54:22.082Z,91.60
2024-01-26T09:56:49.953Z,93.00
2024-01-26T09:59:17.189Z,93.10
2024-01-26T10:01:47.397Z,94.30
2024-01-26T10:04:15.899Z,94.70
2024-01-26T10:06:44.006Z,94.60
2024-01-26T10:09:13.936Z,94.10
2024-01-26T10:11:41.276Z,93.30
2024-01-26T10:14:08.799Z,92.60
2024-01-26T10:16:36.079Z,92.40
2024-01-26T10:19:03.654Z,93.00
2024-01-26T10:21:30.960Z,93.70
2024-01-26T10:23:58.756Z,93.60
2024-01-26T10:26:29.167Z,93.90
2024-01-26T10:28:57.997Z,94.90
2024-01-26T10:31:28.064Z,94.60
2024-01-26T10:33:57.000Z,93.80
2024-01-26T10:36:26.854Z,93.60
2024-01-26T10:38:56.379Z,92.10
2024-01-26T10:41:28.970Z,92.20
2024-01-26T10:43:58.244Z,93.20
2024-01-26T10:46:26.747Z,92.80
2024-01-26T10:48:55.993Z,91.50
2024-01-26T10:51:25.241Z,90.90
2024-01-26T10:53:53.831Z,91.10
2024-01-26T10:56:21.019Z,92.00
2024-01-26T10:58:48.332Z,92.50
2024-01-26T11:01:16.150Z,91.70
2024-01-26T11:03:45.167Z,91.30
2024-01-26T11:06:14.841Z,91.80
2024-01-26T11:08:42.469Z,92.20
2024-01-26T11:11:10.160Z,92.90
2024-01-26T11:13:38.858Z,93.70
2024-01-26T11:16:09.253Z,94.50
2024-01-26T11:18:38.661Z,95.50
2024-01-26T11:21:06.379Z,95.80
2024-01-26T11:23:47.165Z,95.80
2024-01-26T11:26:16.013Z,96.60
2024-01-26T11:28:44.394Z,97.00
2024-01-26T11:31:13.178Z,97.60
2024-01-26T11:33:41.373Z,95.60
2024-01-26T11:36:13.789Z,95.30
2024-01-26T11:38:42.345Z,93.60
2024-01-26T11:41:11.924Z,94.70
2024-01-26T11:43:46.464Z,94.80
2024-01-26T11:46:14.871Z,93.60
2024-01-26T11:48:42.988Z,93.80
2024-01-26T11:51:11.067Z,92.90
2024-01-26T11:53:38.775Z,92.50
2024-01-26T11:56:06.600Z,93.00
2024-01-26T11:58:34.090Z,93.50
2024-01-26T12:01:03.173Z,92.80
2024-01-26T12:03:31.421Z,95.10
2024-01-26T12:05:59.072Z,92.80
2024-01-26T12:08:26.845Z,94.20
2024-01-26T12:10:55.665Z,93.10
2024-01-26T12:13:23.264Z,93.70
2024-01-26T12:15:51.560Z,94.10
2024-01-26T12:18:19.055Z,93.50
2024-01-26T12:20:50.011Z,93.40
2024-01-26T12:23:21.666Z,91.10
2024-01-26T12:25:53.630Z,91.40
2024-01-26T12:28:21.656Z,92.30
2024-01-26T12:30:50.010Z,92.70
2024-01-26T12:33:17.753Z,93.50
2024-01-26T12:35:48.552Z,93.50
2024-01-26T12:38:19.791Z,94.50
2024-01-26T12:40:48.919Z,94.80
2024-01-26T12:43:17.643Z,95.20
2024-01-26T12:45:44.791Z,95.30
2024-01-26T12:48:12.343Z,96.10
2024-01-26T12:50:39.786Z,95.70
2024-01-26T12:53:07.182Z,95.60
2024-01-26T12:55:34.458Z,96.90
2024-01-26T12:58:01.776Z,96.80
2024-01-26T13:00:30.545Z,95.80
2024-01-26T13:03:00.993Z,96.70
2024-01-26T13:05:28.404Z,96.70
2024-01-26T13:07:55.686Z,97.30
2024-01-26T13:10:22.866Z,97.70
2024-01-26T13:12:50.081Z,98.00
2024-01-26T13:15:17.748Z,97.70
2024-01-26T13:17:47.068Z,98.20
2024-01-26T13:20:19.820Z,97.60
2024-01-26T13:22:49.377Z,98.90
2024-01-26T13:25:17.151Z,98.50
2024-01-26T13:27:44.742Z,99.00
2024-01-26T13:30:13.271Z,99.00
2024-01-26T13:32:40.842Z,98.80
2024-01-26T13:35:08.609Z,98.80
2024-01-26T13:37:36.874Z,99.10
2024-01-26T13:40:08.433Z,98.90
2024-01-26T13:42:38.408Z,98.90
2024-01-26T13:45:07.851Z,98.70
2024-01-26T13:47:37.063Z,98.70
2024-01-26T13:50:05.044Z,98.70
2024-01-26T13:52:32.671Z,98.50
2024-01-26T13:54:59.764Z,99.50
2024-01-26T13:57:27.334Z,99.40
2024-01-26T14:00:18.316Z,99.10
2024-01-26T14:02:42.210Z,99.30
2024-01-26T14:05:10.462Z,99.30
2024-01-26T14:07:37.897Z,99.90
2024-01-26T14:10:05.726Z,99.90
2024-01-26T14:12:33.152Z,99.90
2024-01-26T14:15:01.338Z,99.60
2024-01-26T14:17:28.558Z,99.90
2024-01-26T14:19:56.397Z,99.90
2024-01-26T14:22:23.565Z,99.90
2024-01-26T14:24:50.853Z,99.90
2024-01-26T14:27:20.701Z,99.90
2024-01-26T14:29:48.204Z,99.90
2024-01-26T14:32:15.540Z,99.90
2024-01-26T14:34:42.993Z,99.90
2024-01-26T14:37:10.223Z,99.90
2024-01-26T14:39:41.568Z,99.90
2024-01-26T14:42:08.926Z,99.90
2024-01-26T14:44:36.815Z,99.90
2024-01-26T14:47:04.754Z,99.90
2024-01-26T14:49:36.515Z,99.90
2024-01-26T14:52:04.215Z,99.90
2024-01-26T14:54:31.484Z,99.90
2024-01-26T14:56:58.842Z,99.90
2024-01-26T14:59:26.113Z,99.90
2024-01-26T15:01:53.735Z,99.90
2024-01-26T15:04:21.272Z,99.90
2024-01-26T15:06:48.639Z,99.90
2024-01-26T15:09:16.796Z,99.90
2024-01-26T15:11:44.016Z,99.90
2024-01-26T15:14:11.415Z,99.90
2024-01-26T15:16:38.621Z,99.90
2024-01-26T15:19:06.322Z,99.90
2024-01-26T15:21:33.721Z,99.90
2024-01-26T15:24:01.549Z,99.90
2024-01-26T15:26:28.717Z,99.90
2024-01-26T15:28:55.983Z,99.90
2024-01-26T15:31:27.349Z,99.90
2024-01-26T15:33:55.070Z,99.90
2024-01-26T15:36:31.156Z,99.90
2024-01-26T15:38:58.789Z,99.90
2024-01-26T15:41:26.810Z,99.90
2024-01-26T15:43:54.023Z,99.90
2024-01-26T15:46:21.202Z,99.90
2024-01-26T15:48:48.623Z,99.90
2024-01-26T15:51:16.015Z,99.90
2024-01-26T15:53:45.018Z,99.90
2024-01-26T15:56:13.430Z,99.90
2024-01-26T15:58:40.606Z,99.90
2024-01-26T16:01:07.912Z,99.90
2024-01-26T16:03:35.282Z,99.90
2024-01-26T16:06:02.899Z,99.90
2024-01-26T16:08:30.297Z,99.90
2024-01-26T16:10:59.820Z,99.90
2024-01-26T16:13:27.086Z,99.90
2024-01-26T16:15:54.297Z,99.90
2024-01-26T16:18:22.382Z,99.90
2024-01-26T16:20:50.000Z,99.90
2024-01-26T16:23:17.447Z,99.90
2024-01-26T16:25:44.808Z,99.90
2024-01-26T16:28:12.080Z,99.90
2024-01-26T16:30:39.245Z,99.90
2024-01-26T16:33:06.564Z,99.90
2024-01-26T16:35:35.149Z,99.90
2024-01-26T16:38:02.481Z,99.90
2024-01-26T16:40:29.933Z,99.90
2024-01-26T16:42:57.212Z,99.90
2024-01-26T16:45:24.339Z,99.90
2024-01-26T16:47:51.770Z,99.90
2024-01-26T16:50:19.160Z,99.90
2024-01-26T16:52:46.355Z,99.90
2024-01-26T16:55:14.862Z,99.90
2024-01-26T16:57:43.169Z,99.90
2024-01-26T17:00:11.500Z,99.90
2024-01-26T17:02:39.120Z,99.90
2024-01-26T17:05:07.158Z,99.90
2024-01-26T17:07:35.807Z,99.90
2024-01-26T17:10:04.116Z,99.90
2024-01-26T17:12:31.329Z,99.90
2024-01-26T17:14:58.888Z,99.90
2024-01-26T17:17:26.169Z,99.90
2024-01-26T17:19:53.644Z,99.90
2024-01-26T17:22:21.754Z,99.90
2024-01-26T17:24:49.488Z,99.90
2024-01-26T17:27:16.806Z,99.90
2024-01-26T17:29:47.963Z,99.90
2024-01-26T17:32:15.955Z,99.90
2024-01-26T17:34:44.361Z,99.90
2024-01-26T17:37:11.786Z,99.90
2024-01-26T17:39:51.263Z,99.90
2024-01-26T17:42:26.456Z,99.90
2024-01-26T17:44:53.717Z,99.90
2024-01-26T17:47:20.948Z,99.90
2024-01-26T17:49:49.073Z,99.90
2024-01-26T17:52:16.368Z,99.90
2024-01-26T17:54:44.263Z,99.90
2024-01-26T17:57:11.588Z,99.90
2024-01-26T17:59:44.333Z,99.90
2024-01-26T18:02:12.554Z,99.90
2024-01-26T18:04:40.634Z,99.90
2024-01-26T18:07:07.924Z,99.90
2024-01-26T18:09:35.485Z,99.90
2024-01-26T18:12:02.808Z,99.90
2024-01-26T18:14:30.120Z,99.90
2024-01-26T18:16:57.303Z,99.90
2024-01-26T18:19:25.069Z,99.90
2024-01-26T18:21:52.329Z,99.90
2024-01-26T18:24:20.019Z,99.90
2024-01-26T18:26:47.959Z,99.90
2024-01-26T18:29:15.904Z,99.90
2024-01-26T18:31:43.757Z,99.90
2024-01-26T18:34:11.125Z,99.90
2024-01-26T18:36:38.461Z,99.90
2024-01-26T18:39:07.196Z,99.90
2024-01-26T18:41:34.610Z,99.90
2024-01-26T18:44:02.859Z,99.90
2024-01-26T18:46:30.229Z,99.90
2024-01-26T18:48:57.546Z,99.90
2024-01-26T18:51:25.869Z,99.90
2024-01-26T18:53:53.549Z,99.90
2024-01-26T18:56:20.809Z,99.90
2024-01-26T18:58:49.064Z,99.90
2024-01-26T19:01:17.103Z,99.90
2024-01-26T19:03:46.040Z,99.90
2024-01-26T19:06:14.244Z,99.90
2024-01-26T19:08:42.449Z,99.90
2024-01-26T19:11:10.106Z,99.90
2024-01-26T19:13:37.397Z,99.90
2024-01-26T19:16:07.130Z,99.90
2024-01-26T19:18:34.508Z,99.90
2024-01-26T19:21:01.904Z,99.90
2024-01-26T19:23:29.180Z,99.90
2024-01-26T19:25:56.985Z,99.90
2024-01-26T19:28:24.008Z,99.90
2024-01-26T19:30:51.271Z,99.90
2024-01-26T19:33:18.639Z,99.90
2024-01-26T19:35:46.539Z,99.90
2024-01-26T19:38:13.753Z,99.90
2024-01-26T19:40:40.951Z,99.90
2024-01-26T19:43:08.111Z,99.90
2024-01-26T19:45:35.223Z,99.90
2024-01-26T19:48:02.714Z,99.90
2024-01-26T19:50:36.527Z,99.90
2024-01-26T19:53:04.473Z,99.90
2024-01-26T19:55:31.955Z,99.90
2024-01-26T19:57:59.286Z,99.90
2024-01-26T20:00:26.503Z,99.90
2024-01-26T20:02:53.990Z,99.90
2024-01-26T20:05:21.160Z,99.90
2024-01-26T20:07:51.347Z,99.90
2024-01-26T20:10:19.980Z,99.90
2024-01-26T20:12:47.564Z,99.90
2024-01-26T20:15:14.888Z,99.90
2024-01-26T20:17:43.025Z,99.90
2024-01-26T20:20:11.269Z,99.90
2024-01-26T20:22:40.000Z,99.90
2024-01-26T20:25:07.751Z,99.90
2024-01-26T20:27:35.592Z,99.90
2024-01-26T20:30:03.381Z,99.90
2024-01-26T20:32:31.033Z,99.90
2024-01-26T20:35:00.743Z,99.90
2024-01-26T20:37:28.058Z,99.90
2024-01-26T20:39:55.600Z,99.90
2024-01-26T20:42:26.668Z,99.90
2024-01-26T20:44:54.541Z,99.90
2024-01-26T20:47:24.307Z,99.90
2024-01-26T20:49:51.564Z,99.90
2024-01-26T20:52:18.867Z,99.90
2024-01-26T20:54:46.146Z,99.90
2024-01-26T20:57:13.422Z,99.90
2024-01-26T20:59:40.582Z,99.90
2024-01-26T21:02:07.782Z,99.90
2024-01-26T21:04:35.377Z,99.90
2024-01-26T21:07:02.674Z,99.90
2024-01-26T21:09:30.884Z,99.90
2024-01-26T21:11:58.145Z,99.90
2024-01-26T21:14:25.587Z,99.90
2024-01-26T21:16:54.268Z,99.90
2024-01-26T21:19:21.746Z,99.90
2024-01-26T21:21:48.953Z,99.90
2024-01-26T21:24:16.398Z,99.90
2024-01-26T21:26:43.686Z,99.90
2024-01-26T21:29:10.975Z,99.90
2024-01-26T21:31:38.050Z,99.90
2024-01-26T21:34:05.526Z,99.90
2024-01-26T21:36:33.676Z,99.90
2024-01-26T21:39:01.171Z,99.90
2024-01-26T21:41:28.851Z,99.90
2024-01-26T21:44:01.716Z,99.90
2024-01-26T21:46:29.886Z,99.90
2024-01-26T21:48:57.500Z,99.90
2024-01-26T21:51:25.288Z,99.90
2024-01-26T21:53:53.103Z,99.90
2024-01-26T21:56:21.290Z,99.90
2024-01-26T21:58:48.497Z,99.90
2024-01-26T22:01:18.157Z,99.90
2024-01-26T22:03:45.437Z,99.90
2024-01-26T22:06:12.636Z,99.90
2024-01-26T22:08:40.356Z,99.90
2024-01-26T22:11:11.298Z,99.90
2024-01-26T22:13:39.103Z,99.90
2024-01-26T22:16:06.709Z,99.90
2024-01-26T22:18:34.249Z,99.90
2024-01-26T22:21:01.592Z,99.90
2024-01-26T22:23:28.814Z,99.90
2024-01-26T22:25:58.233Z,99.90
2024-01-26T22:28:26.048Z,99.90
2024-01-26T22:30:53.382Z,99.90
2024-01-26T22:33:20.899Z,99.90
2024-01-26T22:35:48.113Z,99.90
2024-01-26T22:38:15.391Z,99.90
2024-01-26T22:40:42.608Z,99.90
2024-01-26T22:43:10.646Z,99.90
2024-01-26T22:45:37.872Z,99.90
2024-01-26T22:48:05.695Z,99.90
2024-01-26T22:50:32.844Z,99.90
2024-01-26T22:53:00.302Z,99.90
2024-01-26T22:55:27.450Z,99.90
2024-01-26T22:57:54.637Z,99.90
2024-01-26T23:00:29.545Z,99.90
2024-01-26T23:03:00.598Z,99.90
2024-01-26T23:05:31.782Z,99.90
2024-01-26T23:08:00.704Z,99.90
2024-01-26T23:10:28.074Z,99.90
2024-01-26T23:12:57.013Z,99.90
2024-01-26T23:15:25.387Z,99.90
2024-01-26T23:17:52.618Z,99.90
2024-01-26T23:20:19.917Z,99.90
2024-01-26T23:22:47.175Z,99.90
2024-01-26T23:25:14.384Z,99.90
2024-01-26T23:27:41.480Z,99.90
2024-01-26T23:30:09.854Z,99.90
2024-01-26T23:32:45.353Z,99.90
2024-01-26T23:35:13.000Z,99.90
2024-01-26T23:37:40.436Z,99.90
2024-01-26T23:40:08.454Z,99.90
2024-01-26T23:42:35.573Z,99.90
2024-01-26T23:45:03.163Z,99.90
2024-01-26T23:47:30.530Z,99.90
2024-01-26T23:49:57.912Z,99.90
2024-01-26T23:52:25.300Z,99.90
2024-01-26T23:54:52.558Z,99.90
2024-01-26T23:57:20.025Z,99.90
2024-01-26T23:59:47.319Z,99.90
